Time;durP1;ratioP1;P1;durP2;ratioP2;P2;SDS_P1;SDS_P2;PMS_P1;PMS_P2;Temp;Humidity;BMP_temperature;BMP_pressure;BME280_temperature;BME280_humidity;BME280_pressure;Samples;Min_cycle;Max_cycle;Signal;HPM_P1;HPM_P2
2023/04/28 00:00:51;;;;;;;7.47;4.90;;;;;;;-143.48;52.04;118439.88;5055198;28;20044;-29
2023/04/28 00:03:17;;;;;;;8.18;4.72;;;;;;;-143.48;51.44;118439.88;5054819;28;20100;-29
2023/04/28 00:05:42;;;;;;;7.95;4.90;;;;;;;-143.48;51.32;118439.88;5054808;28;20162;-29
2023/04/28 00:08:08;;;;;;;7.85;4.63;;;;;;;-143.48;51.47;118439.88;5055045;28;20021;-29
2023/04/28 00:10:33;;;;;;;11.38;5.32;;;;;;;-143.48;51.46;118439.88;5055029;28;20086;-30
2023/04/28 00:12:59;;;;;;;8.85;5.28;;;;;;;-143.48;51.96;118439.88;5054614;28;20427;-29
2023/04/28 00:15:24;;;;;;;9.20;4.90;;;;;;;-143.48;52.34;118439.88;5054956;28;20021;-29
2023/04/28 00:17:50;;;;;;;9.82;5.45;;;;;;;-143.48;52.42;118439.88;5036733;28;20017;-29
2023/04/28 00:20:15;;;;;;;7.60;4.75;;;;;;;-143.48;51.79;118439.88;5054875;28;20052;-29
2023/04/28 00:22:40;;;;;;;9.93;4.95;;;;;;;-143.48;51.99;118439.88;5054400;28;20104;-29
2023/04/28 00:25:07;;;;;;;12.98;5.30;;;;;;;-143.48;51.88;118439.88;5054622;28;20107;-30
2023/04/28 00:27:32;;;;;;;10.13;4.93;;;;;;;-143.48;51.96;118439.88;5055257;28;20017;-37
2023/04/28 00:29:58;;;;;;;7.88;4.65;;;;;;;-143.48;52.09;118439.88;5054636;28;20047;-37
2023/04/28 00:32:23;;;;;;;9.82;5.30;;;;;;;-143.48;52.11;118439.88;5054380;28;20467;-37
2023/04/28 00:34:48;;;;;;;10.00;5.05;;;;;;;-143.48;51.99;118439.88;5054495;28;20115;-38
2023/04/28 00:37:13;;;;;;;9.35;5.03;;;;;;;-143.48;52.66;118439.88;5054234;28;20360;-37
2023/04/28 00:39:40;;;;;;;9.73;5.32;;;;;;;-143.48;53.46;118439.88;5054256;28;20029;-38
2023/04/28 00:42:06;;;;;;;8.95;5.07;;;;;;;-143.48;53.55;118439.88;5054087;28;20028;-37
2023/04/28 00:44:31;;;;;;;7.95;5.10;;;;;;;-143.48;53.77;118439.88;5054230;28;20021;-37
2023/04/28 00:46:58;;;;;;;11.75;5.35;;;;;;;-143.48;52.40;118439.88;5054259;28;20132;-37
2023/04/28 00:49:24;;;;;;;8.45;5.28;;;;;;;-143.48;52.47;118439.88;5054191;28;20506;-37
2023/04/28 00:51:49;;;;;;;8.18;4.97;;;;;;;-143.48;52.66;118439.88;5054186;28;20023;-38
2023/04/28 00:54:15;;;;;;;8.85;5.13;;;;;;;-143.48;52.60;118439.88;5054634;28;20475;-37
2023/04/28 00:56:41;;;;;;;10.98;5.03;;;;;;;-143.48;52.48;118439.88;5053977;28;20025;-38
2023/04/28 00:59:07;;;;;;;10.07;4.72;;;;;;;-143.48;52.41;118439.88;5054341;28;20028;-37
2023/04/28 01:01:32;;;;;;;7.80;4.80;;;;;;;-143.48;52.63;118439.88;5054324;28;20095;-37
2023/04/28 01:03:57;;;;;;;8.70;4.75;;;;;;;-143.48;53.15;118439.88;5053381;28;20078;-37
2023/04/28 01:06:23;;;;;;;10.30;5.32;;;;;;;-143.48;53.20;118439.88;5053672;28;20017;-36
2023/04/28 01:08:49;;;;;;;10.10;5.22;;;;;;;-143.48;53.77;118439.88;5053547;28;20090;-36
2023/04/28 01:11:15;;;;;;;8.93;4.55;;;;;;;-143.48;56.59;118439.88;5053899;28;20104;-35
2023/04/28 01:13:40;;;;;;;9.07;4.70;;;;;;;-143.48;55.25;118439.88;5053867;28;20067;-37
2023/04/28 01:16:06;;;;;;;7.38;4.93;;;;;;;-143.48;54.70;118439.88;5053914;28;20028;-37
2023/04/28 01:18:32;;;;;;;9.48;4.70;;;;;;;-143.48;55.85;118439.88;5053441;28;20064;-35
2023/04/28 01:20:57;;;;;;;9.23;4.95;;;;;;;-143.48;56.17;118439.88;5035607;28;20024;-37
2023/04/28 01:23:23;;;;;;;9.40;4.68;;;;;;;-143.48;55.68;118439.88;5053364;28;20028;-37
2023/04/28 01:25:48;;;;;;;8.70;4.82;;;;;;;-143.48;56.92;118439.88;5053623;28;20025;-37
2023/04/28 01:28:13;;;;;;;8.65;4.95;;;;;;;-143.48;56.83;118439.88;5053530;28;20023;-36
2023/04/28 01:30:39;;;;;;;14.25;4.80;;;;;;;-143.48;57.94;118439.88;5053148;28;20483;-38
2023/04/28 01:33:04;;;;;;;8.85;4.93;;;;;;;-143.48;58.34;118439.88;5053560;28;20452;-37
2023/04/28 01:35:30;;;;;;;7.25;4.60;;;;;;;-143.48;56.56;118439.88;5053802;28;20035;-37
2023/04/28 01:37:55;;;;;;;8.48;4.65;;;;;;;-143.48;56.43;118439.88;5053387;28;20029;-37
2023/04/28 01:40:20;;;;;;;10.23;4.97;;;;;;;-143.48;57.03;118439.88;5053447;28;20111;-38
2023/04/28 01:42:46;;;;;;;8.52;4.80;;;;;;;-143.48;56.53;118439.88;5053410;28;20024;-37
2023/04/28 01:45:11;;;;;;;7.78;4.38;;;;;;;-143.48;56.39;118439.88;5053119;28;20025;-38
2023/04/28 01:47:36;;;;;;;9.88;4.95;;;;;;;-143.48;56.00;118439.88;5053719;28;20028;-37
2023/04/28 01:50:02;;;;;;;8.82;4.30;;;;;;;-143.48;54.93;118439.88;5053420;28;20033;-37
2023/04/28 01:52:27;;;;;;;9.70;4.55;;;;;;;-143.48;55.27;118439.88;5035131;28;20020;-37
2023/04/28 01:54:54;;;;;;;7.53;4.32;;;;;;;-143.48;55.16;118439.88;5052932;28;20082;-37
2023/04/28 01:57:19;;;;;;;6.85;4.32;;;;;;;-143.48;53.92;118439.88;5053048;28;20078;-38
2023/04/28 01:59:45;;;;;;;8.40;4.70;;;;;;;-143.48;54.60;118439.88;5053268;28;20100;-37
2023/04/28 02:02:11;;;;;;;7.15;4.15;;;;;;;-143.48;55.21;118439.88;5052998;28;20574;-38
2023/04/28 02:04:40;;;;;;;9.13;4.40;;;;;;;-143.48;53.70;118439.88;5053003;28;20480;-36
2023/04/28 02:07:06;;;;;;;9.48;4.35;;;;;;;-143.48;54.14;118439.88;5053278;28;20021;-38
2023/04/28 02:09:32;;;;;;;12.15;4.75;;;;;;;-143.48;55.47;118439.88;5053044;28;20468;-37
2023/04/28 02:11:58;;;;;;;7.65;4.80;;;;;;;-143.48;55.80;118439.88;5052898;28;20036;-37
2023/04/28 02:14:24;;;;;;;8.57;4.22;;;;;;;-143.48;54.04;118439.88;5053089;28;20020;-35
2023/04/28 02:16:49;;;;;;;8.70;4.65;;;;;;;-143.48;53.52;118439.88;5055487;28;20021;-37
2023/04/28 02:19:15;;;;;;;8.07;3.97;;;;;;;-143.48;54.50;118439.88;5056860;28;20029;-37
2023/04/28 02:21:41;;;;;;;7.15;4.50;;;;;;;-143.48;54.90;118439.88;5057627;28;20021;-35
2023/04/28 02:24:07;;;;;;;6.88;4.47;;;;;;;-143.48;54.86;118439.88;5056961;28;20079;-38
2023/04/28 02:26:33;;;;;;;7.45;4.78;;;;;;;-143.48;55.75;118439.88;5056993;28;20025;-37
2023/04/28 02:28:58;;;;;;;9.88;4.78;;;;;;;-143.48;55.25;118439.88;5056667;28;20017;-37
2023/04/28 02:31:23;;;;;;;8.75;4.38;;;;;;;-143.48;54.84;118439.88;5056596;28;20029;-37
2023/04/28 02:33:48;;;;;;;6.80;4.30;;;;;;;-143.48;54.74;118439.88;5057160;28;20025;-36
2023/04/28 02:36:14;;;;;;;8.90;4.50;;;;;;;-143.48;55.09;118439.88;5056673;28;20025;-37
2023/04/28 02:38:40;;;;;;;9.20;4.53;;;;;;;-143.48;55.18;118439.88;5056659;28;20044;-38
2023/04/28 02:41:07;;;;;;;6.93;4.35;;;;;;;-143.48;55.73;118439.88;5056741;28;20468;-37
2023/04/28 02:43:34;;;;;;;7.55;4.78;;;;;;;-143.48;55.59;118439.88;5056282;28;20021;-35
2023/04/28 02:46:01;;;;;;;7.70;4.55;;;;;;;-143.48;55.22;118439.88;5056343;28;20032;-38
2023/04/28 02:48:26;;;;;;;9.93;4.63;;;;;;;-143.48;55.45;118439.88;5056274;28;20025;-37
2023/04/28 02:50:52;;;;;;;11.85;4.75;;;;;;;-143.48;56.24;118439.88;5056360;28;20021;-38
2023/04/28 02:53:18;;;;;;;9.75;4.68;;;;;;;-143.48;54.72;118439.88;5055991;28;20053;-37
2023/04/28 02:55:43;;;;;;;11.95;5.10;;;;;;;-143.48;55.52;118439.88;5056219;28;20103;-37
2023/04/28 02:58:09;;;;;;;9.27;5.00;;;;;;;-143.48;55.65;118439.88;5056247;28;20116;-36
2023/04/28 03:00:34;;;;;;;8.95;4.95;;;;;;;-143.48;55.85;118439.88;5056856;28;20021;-35
2023/04/28 03:03:00;;;;;;;9.93;5.65;;;;;;;-143.48;55.73;118439.88;5056562;28;20040;-37
2023/04/28 03:05:26;;;;;;;8.30;4.82;;;;;;;-143.48;56.20;118439.88;5056241;28;20499;-37
2023/04/28 03:07:51;;;;;;;8.00;5.13;;;;;;;-143.48;56.30;118439.88;5055942;28;20028;-36
2023/04/28 03:10:17;;;;;;;9.70;4.75;;;;;;;-143.48;57.39;118439.88;5056085;28;20024;-37
2023/04/28 03:12:42;;;;;;;9.48;5.18;;;;;;;-143.48;56.83;118439.88;5055791;28;20024;-36
2023/04/28 03:15:08;;;;;;;8.80;5.07;;;;;;;-143.48;57.12;118439.88;5056114;28;20384;-36
2023/04/28 03:17:35;;;;;;;7.32;4.38;;;;;;;-143.48;56.47;118439.88;5038020;28;20025;-36
2023/04/28 03:20:01;;;;;;;9.23;4.90;;;;;;;-143.48;57.15;118439.88;5055555;28;20027;-36
2023/04/28 03:22:27;;;;;;;9.32;4.60;;;;;;;-143.48;56.97;118439.88;5055609;28;20032;-36
2023/04/28 03:24:52;;;;;;;13.40;5.18;;;;;;;-143.48;57.11;118439.88;5055883;28;20079;-38
2023/04/28 03:27:17;;;;;;;8.20;4.72;;;;;;;-143.48;58.02;118439.88;5055594;28;20013;-36
2023/04/28 03:29:43;;;;;;;8.90;4.95;;;;;;;-143.48;57.56;118439.88;5055810;28;20021;-36
2023/04/28 03:32:08;;;;;;;8.85;5.20;;;;;;;-143.48;57.29;118439.88;5055618;28;20029;-36
2023/04/28 03:34:33;;;;;;;8.65;4.95;;;;;;;-143.48;57.21;118439.88;5055741;28;20041;-36
2023/04/28 03:36:58;;;;;;;9.73;5.10;;;;;;;-143.48;57.76;118439.88;5055577;28;20083;-34
2023/04/28 03:39:24;;;;;;;10.27;5.35;;;;;;;-143.48;57.64;118439.88;5055607;28;20135;-37
2023/04/28 03:41:49;;;;;;;7.40;4.82;;;;;;;-143.48;57.68;118439.88;5055418;28;20383;-36
2023/04/28 03:44:15;;;;;;;9.43;5.40;;;;;;;-143.48;58.09;118439.88;5055439;28;20024;-36
2023/04/28 03:46:40;;;;;;;10.52;5.50;;;;;;;-143.48;58.25;118439.88;5055188;28;20032;-36
2023/04/28 03:49:05;;;;;;;8.95;5.00;;;;;;;-143.48;58.31;118439.88;5055455;28;20048;-38
2023/04/28 03:51:31;;;;;;;8.23;5.13;;;;;;;-143.48;58.01;118439.88;5055312;28;20028;-36
2023/04/28 03:53:57;;;;;;;11.55;5.20;;;;;;;-143.48;58.45;118439.88;5033618;28;20049;-36
2023/04/28 03:56:22;;;;;;;12.18;5.45;;;;;;;-143.48;58.52;118439.88;5035074;28;20032;-36
2023/04/28 03:58:48;;;;;;;8.82;5.25;;;;;;;-143.48;58.38;118439.88;5034977;28;20037;-35
2023/04/28 04:01:13;;;;;;;9.75;5.63;;;;;;;-143.48;58.79;118439.88;5035199;28;20033;-37
2023/04/28 04:03:38;;;;;;;8.57;4.97;;;;;;;-143.48;59.28;118439.88;5035403;28;20029;-37
2023/04/28 04:06:04;;;;;;;10.73;5.55;;;;;;;-143.48;60.06;118439.88;5035177;28;20018;-36
2023/04/28 04:08:29;;;;;;;12.52;5.93;;;;;;;-143.48;60.85;118439.88;5035146;28;20377;-37
2023/04/28 04:10:55;;;;;;;11.63;5.13;;;;;;;-143.48;60.96;118439.88;5034265;28;20041;-36
2023/04/28 04:13:21;;;;;;;7.95;5.40;;;;;;;-143.48;59.79;118439.88;5034742;28;20083;-36
2023/04/28 04:15:46;;;;;;;11.02;5.50;;;;;;;-143.48;60.96;118439.88;5035475;28;20025;-36
2023/04/28 04:18:13;;;;;;;9.63;5.45;;;;;;;-143.48;61.22;118439.88;5034966;28;20072;-36
2023/04/28 04:20:39;;;;;;;10.93;6.00;;;;;;;-143.48;61.21;118439.88;5035002;28;20162;-37
2023/04/28 04:23:04;;;;;;;8.55;5.47;;;;;;;-143.48;60.78;118439.88;5034587;28;20060;-36
2023/04/28 04:25:29;;;;;;;12.45;5.45;;;;;;;-143.48;60.48;118439.88;5033332;28;20056;-37
2023/04/28 04:27:54;;;;;;;9.43;5.10;;;;;;;-143.48;60.63;118439.88;5034736;28;20017;-37
2023/04/28 04:30:20;;;;;;;11.45;5.68;;;;;;;-143.48;60.30;118439.88;5034731;28;20037;-37
2023/04/28 04:32:45;;;;;;;13.15;5.53;;;;;;;-143.48;60.90;118439.88;5034725;28;20031;-37
2023/04/28 04:35:10;;;;;;;10.35;5.53;;;;;;;-143.48;60.56;118439.88;5034685;28;20030;-36
2023/04/28 04:37:36;;;;;;;11.85;5.22;;;;;;;-143.48;60.23;118439.88;5034137;28;20129;-37
2023/04/28 04:40:02;;;;;;;8.98;5.28;;;;;;;-143.48;59.73;118439.88;5033977;28;20029;-39
2023/04/28 04:42:27;;;;;;;7.88;5.13;;;;;;;-143.48;60.67;118439.88;5034233;28;20034;-33
2023/04/28 04:44:53;;;;;;;11.93;5.07;;;;;;;-143.48;59.95;118439.88;5034340;28;20029;-37
2023/04/28 04:47:18;;;;;;;9.52;5.30;;;;;;;-143.48;60.39;118439.88;5034691;28;20048;-36
2023/04/28 04:49:43;;;;;;;9.00;5.10;;;;;;;-143.48;60.19;118439.88;5034330;28;20052;-37
2023/04/28 04:52:09;;;;;;;10.20;5.03;;;;;;;-143.48;60.54;118439.88;5034611;28;20026;-37
2023/04/28 04:54:34;;;;;;;8.40;5.50;;;;;;;-143.48;60.76;118439.88;5051147;28;20048;-35
2023/04/28 04:57:00;;;;;;;11.48;5.28;;;;;;;-143.48;59.60;118439.88;5035933;28;20028;-36
2023/04/28 04:59:25;;;;;;;10.50;5.30;;;;;;;-143.48;59.33;118439.88;5054549;28;20025;-39
2023/04/28 05:01:51;;;;;;;7.38;5.07;;;;;;;-143.48;59.46;118439.88;5054089;28;20021;-36
2023/04/28 05:04:16;;;;;;;10.82;5.28;;;;;;;-143.48;59.16;118439.88;5053702;28;20025;-34
2023/04/28 05:06:41;;;;;;;9.60;5.50;;;;;;;-143.48;59.53;118439.88;5054041;28;20021;-36
2023/04/28 05:09:07;;;;;;;10.35;4.88;;;;;;;-143.48;59.52;118439.88;5053623;28;20025;-36
2023/04/28 05:11:32;;;;;;;9.05;5.10;;;;;;;-143.48;59.81;118439.88;5053503;28;20020;-36
2023/04/28 05:13:57;;;;;;;11.95;5.15;;;;;;;-143.48;60.57;118439.88;5054119;28;20036;-36
2023/04/28 05:16:23;;;;;;;9.73;5.32;;;;;;;-143.48;59.81;118439.88;5053904;28;20380;-36
2023/04/28 05:18:48;;;;;;;10.93;5.70;;;;;;;-143.48;60.89;118439.88;5053495;28;20163;-37
2023/04/28 05:21:13;;;;;;;8.88;5.18;;;;;;;-143.48;60.30;118439.88;5053721;28;20032;-36
2023/04/28 05:23:38;;;;;;;7.65;5.10;;;;;;;-143.48;61.15;118439.88;5053440;28;20093;-35
2023/04/28 05:26:04;;;;;;;8.55;5.55;;;;;;;-143.48;60.89;118439.88;5053503;28;20025;-36
2023/04/28 05:28:30;;;;;;;10.32;5.35;;;;;;;-143.48;60.62;118439.88;5053689;28;20509;-37
2023/04/28 05:30:56;;;;;;;11.38;5.47;;;;;;;-143.48;61.40;118439.88;5053427;28;20044;-36
2023/04/28 05:33:22;;;;;;;8.82;5.60;;;;;;;-143.48;63.24;118439.88;5053163;28;20102;-34
2023/04/28 05:35:48;;;;;;;10.90;5.75;;;;;;;-143.48;64.70;118439.88;5035388;28;20025;-36
2023/04/28 05:38:13;;;;;;;13.90;6.20;;;;;;;-143.48;67.66;118439.88;5053029;28;20033;-36
2023/04/28 05:40:39;;;;;;;12.07;5.85;;;;;;;-143.48;67.84;118439.88;5053001;28;20367;-36
2023/04/28 05:43:04;;;;;;;10.15;6.00;;;;;;;-143.48;71.86;118439.88;5052974;28;20079;-36
2023/04/28 05:45:30;;;;;;;11.68;6.53;;;;;;;-143.48;74.93;118439.88;5053002;28;20033;-36
2023/04/28 05:47:55;;;;;;;11.95;6.20;;;;;;;-143.48;74.01;118439.88;5053063;28;20032;-37
2023/04/28 05:50:20;;;;;;;10.98;6.50;;;;;;;-143.48;76.01;118439.88;5055040;28;20027;-37
2023/04/28 05:52:46;;;;;;;11.60;6.88;;;;;;;-143.48;77.93;118439.88;5039190;28;20065;-37
2023/04/28 05:55:11;;;;;;;11.32;6.95;;;;;;;-143.48;78.38;118439.88;5039677;28;20035;-37
2023/04/28 05:57:36;;;;;;;11.43;6.95;;;;;;;-143.48;80.13;118439.88;5057009;28;20028;-37
2023/04/28 06:00:02;;;;;;;12.80;7.10;;;;;;;-143.48;83.82;118439.88;5057072;28;20023;-36
2023/04/28 06:02:27;;;;;;;10.55;6.82;;;;;;;-143.48;84.59;118439.88;5056933;28;20075;-36
2023/04/28 06:04:53;;;;;;;14.02;7.32;;;;;;;-143.48;85.65;118439.88;5057223;28;20423;-36
2023/04/28 06:07:18;;;;;;;13.95;7.30;;;;;;;-143.48;86.32;118439.88;5038988;28;20440;-37
2023/04/28 06:09:44;;;;;;;13.20;6.70;;;;;;;-143.48;85.86;118439.88;5057226;28;20047;-37
2023/04/28 06:12:09;;;;;;;11.50;7.32;;;;;;;-143.48;85.80;118439.88;5056808;28;20100;-36
2023/04/28 06:14:36;;;;;;;10.60;6.93;;;;;;;-143.48;85.57;118439.88;5056816;28;20032;-37
2023/04/28 06:17:02;;;;;;;13.48;6.90;;;;;;;-143.48;84.47;118439.88;5056803;28;20027;-37
2023/04/28 06:19:27;;;;;;;13.90;8.00;;;;;;;-143.48;84.69;118439.88;5056639;28;20028;-35
2023/04/28 06:21:53;;;;;;;14.23;7.38;;;;;;;-143.48;85.37;118439.88;5038836;28;20100;-37
2023/04/28 06:24:18;;;;;;;14.65;7.45;;;;;;;-143.48;83.87;118439.88;5056636;28;20033;-36
2023/04/28 06:26:43;;;;;;;12.57;7.03;;;;;;;-143.48;82.13;118439.88;5057109;28;20024;-37
2023/04/28 06:29:09;;;;;;;15.38;7.28;;;;;;;-143.48;82.36;118439.88;5056493;28;20097;-34
2023/04/28 06:31:34;;;;;;;13.52;7.38;;;;;;;-143.48;83.15;118439.88;5056804;28;20037;-37
2023/04/28 06:33:59;;;;;;;12.73;7.72;;;;;;;-143.48;82.44;118439.88;5056437;28;20029;-37
2023/04/28 06:36:25;;;;;;;15.48;8.50;;;;;;;-143.48;81.63;118439.88;5056349;28;20035;-34
2023/04/28 06:38:51;;;;;;;12.52;7.30;;;;;;;-143.48;80.95;118439.88;5056500;28;20049;-36
2023/04/28 06:41:16;;;;;;;14.98;8.05;;;;;;;-143.48;82.62;118439.88;5056529;28;20537;-36
2023/04/28 06:43:42;;;;;;;12.88;8.02;;;;;;;-143.48;83.35;118439.88;5056322;28;20506;-37
2023/04/28 06:46:07;;;;;;;13.88;8.00;;;;;;;-143.48;81.52;118439.88;5056909;28;20036;-35
2023/04/28 06:48:33;;;;;;;15.07;8.02;;;;;;;-143.48;81.88;118439.88;5056463;28;20359;-36
2023/04/28 06:50:58;;;;;;;13.20;7.97;;;;;;;-143.48;82.62;118439.88;5056341;28;20021;-37
2023/04/28 06:53:24;;;;;;;15.60;8.45;;;;;;;-143.48;82.80;118439.88;5034864;28;20056;-36
2023/04/28 06:55:49;;;;;;;16.30;8.35;;;;;;;-143.48;80.87;118439.88;5036141;28;20014;-36
2023/04/28 06:58:15;;;;;;;18.80;8.93;;;;;;;-143.48;80.68;118439.88;5036223;28;20018;-37
2023/04/28 07:00:40;;;;;;;11.85;8.07;;;;;;;-143.48;81.47;118439.88;5036214;28;20018;-35
2023/04/28 07:03:06;;;;;;;15.27;7.55;;;;;;;-143.48;79.98;118439.88;5035464;28;20055;-34
2023/04/28 07:05:33;;;;;;;14.85;8.23;;;;;;;-143.48;81.38;118439.88;5018314;28;20025;-35
2023/04/28 07:08:00;;;;;;;15.52;8.43;;;;;;;-143.48;80.87;118439.88;5034727;28;20179;-42
2023/04/28 07:10:26;;;;;;;13.80;8.27;;;;;;;-143.48;81.92;118439.88;5035911;28;20471;-37
2023/04/28 07:12:52;;;;;;;17.15;8.70;;;;;;;-143.48;82.05;118439.88;5035707;28;20021;-37
2023/04/28 07:15:17;;;;;;;13.95;8.60;;;;;;;-143.48;82.65;118439.88;5035663;28;20048;-36
2023/04/28 07:17:43;;;;;;;15.95;8.75;;;;;;;-143.48;82.31;118439.88;5035646;28;20108;-37
2023/04/28 07:20:08;;;;;;;16.15;8.32;;;;;;;-143.48;82.65;118439.88;5035646;28;20126;-35
2023/04/28 07:22:33;;;;;;;14.85;9.20;;;;;;;-143.48;83.50;118439.88;5035752;28;20033;-36
2023/04/28 07:24:59;;;;;;;18.67;9.93;;;;;;;-143.48;84.06;118439.88;5035618;28;20085;-35
2023/04/28 07:27:24;;;;;;;16.13;8.77;;;;;;;-143.48;82.84;118439.88;5035773;28;20018;-36
2023/04/28 07:29:50;;;;;;;16.88;9.10;;;;;;;-143.48;82.52;118439.88;5034557;28;20029;-36
2023/04/28 07:32:15;;;;;;;15.23;9.55;;;;;;;-143.48;84.10;118439.88;5035386;28;20017;-37
2023/04/28 07:34:40;;;;;;;17.83;9.82;;;;;;;-143.48;82.78;118439.88;5035459;28;20104;-37
2023/04/28 07:37:06;;;;;;;20.25;9.90;;;;;;;-143.48;83.11;118439.88;5035595;28;20354;-37
2023/04/28 07:39:32;;;;;;;14.88;9.63;;;;;;;-143.48;84.26;118439.88;5035759;28;20517;-34
2023/04/28 07:41:58;;;;;;;18.23;9.68;;;;;;;-143.48;84.66;118439.88;5035531;28;20052;-35
2023/04/28 07:44:24;;;;;;;17.73;9.75;;;;;;;-143.48;83.51;118439.88;5035110;28;20087;-37
2023/04/28 07:46:49;;;;;;;15.65;9.77;;;;;;;-143.48;82.95;118439.88;5033995;28;20115;-36
2023/04/28 07:49:16;;;;;;;15.73;9.90;;;;;;;-143.48;83.42;118439.88;5035838;28;20087;-36
2023/04/28 07:51:41;;;;;;;13.90;9.45;;;;;;;-143.48;83.18;118439.88;5035246;28;20041;-36
2023/04/28 07:54:07;;;;;;;21.67;9.82;;;;;;;-143.48;82.72;118439.88;5048589;28;20224;-36
2023/04/28 07:56:33;;;;;;;18.33;10.32;;;;;;;-143.48;83.82;118439.88;5055283;28;20025;-37
2023/04/28 07:58:58;;;;;;;14.80;9.65;;;;;;;-143.48;84.09;118439.88;5054982;28;20052;-36
2023/04/28 08:01:24;;;;;;;17.10;10.38;;;;;;;-143.48;83.79;118439.88;5054565;28;20016;-36
2023/04/28 08:03:49;;;;;;;19.70;10.63;;;;;;;-143.48;83.98;118439.88;5054264;28;20025;-36
2023/04/28 08:06:14;;;;;;;16.65;10.40;;;;;;;-143.48;83.30;118439.88;5054124;28;20029;-37
2023/04/28 08:08:40;;;;;;;17.52;10.30;;;;;;;-143.48;83.06;118439.88;5054215;28;20036;-34
2023/04/28 08:11:06;;;;;;;22.00;10.48;;;;;;;-143.48;83.18;118439.88;5054136;28;20116;-37
2023/04/28 08:13:32;;;;;;;18.13;10.82;;;;;;;-143.48;84.13;118439.88;5035196;28;20041;-38
2023/04/28 08:15:59;;;;;;;17.33;10.38;;;;;;;-143.48;83.35;118439.88;5054515;28;20059;-36
2023/04/28 08:18:25;;;;;;;15.35;10.25;;;;;;;-143.48;83.80;118439.88;5054769;28;20030;-36
2023/04/28 08:20:50;;;;;;;20.15;10.68;;;;;;;-143.48;84.65;118439.88;5054502;28;20309;-36
2023/04/28 08:23:15;;;;;;;21.55;11.20;;;;;;;-143.48;84.46;118439.88;5054854;28;20036;-36
2023/04/28 08:25:41;;;;;;;18.25;10.57;;;;;;;-143.48;84.71;118439.88;5054432;28;20140;-36
2023/04/28 08:28:07;;;;;;;18.98;10.52;;;;;;;-143.48;85.28;118439.88;5054651;28;20066;-36
2023/04/28 08:30:33;;;;;;;17.13;11.13;;;;;;;-143.48;86.01;118439.88;5054419;28;20079;-35
2023/04/28 08:32:58;;;;;;;17.08;10.68;;;;;;;-143.48;84.94;118439.88;5054576;28;20055;-37
2023/04/28 08:35:24;;;;;;;15.98;11.00;;;;;;;-143.48;85.59;118439.88;5054803;28;20380;-36
2023/04/28 08:37:51;;;;;;;20.25;11.13;;;;;;;-143.48;85.18;118439.88;5054406;28;20475;-37
2023/04/28 08:40:17;;;;;;;21.33;11.05;;;;;;;-143.48;85.71;118439.88;5054571;28;20040;-35
2023/04/28 08:42:44;;;;;;;18.42;11.63;;;;;;;-143.48;86.17;118439.88;5054479;28;20017;-35
2023/04/28 08:45:12;;;;;;;20.75;11.02;;;;;;;-143.48;86.60;118439.88;5054178;28;20114;-37
2023/04/28 08:47:44;;;;;;;22.35;11.35;;;;;;;-143.48;88.07;118439.88;5054189;28;20114;-37
2023/04/28 08:50:11;;;;;;;22.50;11.27;;;;;;;-143.48;87.88;118439.88;5054004;28;20029;-37
2023/04/28 08:52:37;;;;;;;20.67;12.05;;;;;;;-143.48;88.34;118439.88;5054052;28;20489;-37
2023/04/28 08:55:08;;;;;;;19.02;11.48;;;;;;;-143.48;89.26;118439.88;5036000;28;20024;-35
2023/04/28 08:57:45;;;;;;;24.25;12.43;;;;;;;-143.48;91.77;118439.88;5054080;28;20040;-36
2023/04/28 09:00:11;;;;;;;19.95;11.73;;;;;;;-143.48;91.74;118439.88;5053800;28;20024;-38
2023/04/28 09:02:40;;;;;;;21.52;12.93;;;;;;;-143.48;92.71;118439.88;5054227;28;20511;-38
2023/04/28 09:05:12;;;;;;;22.98;12.63;;;;;;;-143.48;93.12;118439.88;5053633;28;20104;-37
2023/04/28 09:07:39;;;;;;;21.17;12.85;;;;;;;-143.48;94.79;118439.88;5053781;28;20032;-37
2023/04/28 09:10:21;;;;;;;21.55;12.32;;;;;;;-143.48;94.48;118439.88;5053678;28;20082;-37
2023/04/28 09:12:50;;;;;;;26.40;13.27;;;;;;;-143.48;96.21;118439.88;5054087;28;20036;-37
2023/04/28 09:15:25;;;;;;;19.35;12.80;;;;;;;-143.48;95.76;118439.88;5053558;28;20025;-35
2023/04/28 09:17:51;;;;;;;22.52;13.57;;;;;;;-143.48;95.85;118439.88;5053341;28;20029;-35
2023/04/28 09:20:21;;;;;;;23.38;14.77;;;;;;;-143.48;96.70;118439.88;5035656;28;20020;-34
2023/04/28 09:22:47;;;;;;;21.02;13.70;;;;;;;-143.48;97.99;118439.88;5053693;28;20033;-37
2023/04/28 09:25:13;;;;;;;21.33;13.90;;;;;;;-143.48;99.03;118439.88;5053675;28;20052;-38
2023/04/28 09:27:38;;;;;;;23.70;14.63;;;;;;;-143.48;100.00;118439.88;5053538;28;20032;-38
2023/04/28 09:30:04;;;;;;;25.70;14.75;;;;;;;-143.48;100.00;118439.88;5053663;28;20032;-34
2023/04/28 09:32:29;;;;;;;20.70;14.80;;;;;;;-143.48;100.00;118439.88;5053595;28;20487;-37
2023/04/28 09:34:55;;;;;;;22.55;14.88;;;;;;;-143.48;100.00;118439.88;5053163;28;20040;-37
2023/04/28 09:37:23;;;;;;;25.00;15.13;;;;;;;-143.48;100.00;118439.88;5053180;28;20117;-37
2023/04/28 09:39:50;;;;;;;26.92;14.73;;;;;;;-143.48;100.00;118439.88;5054013;28;20021;-35
2023/04/28 09:42:38;;;;;;;25.77;15.85;;;;;;;-143.48;100.00;118439.88;5053519;28;20035;-36
2023/04/28 09:45:09;;;;;;;24.80;16.00;;;;;;;-143.48;100.00;118439.88;5052941;28;20021;-36
2023/04/28 09:47:36;;;;;;;26.42;15.93;;;;;;;-143.48;100.00;118439.88;5051577;28;20075;-35
2023/04/28 09:50:04;;;;;;;25.92;16.58;;;;;;;-143.48;100.00;118439.88;5033543;28;20029;-34
2023/04/28 09:52:32;;;;;;;22.33;15.93;;;;;;;-143.48;100.00;118439.88;5051897;28;20040;-36
2023/04/28 09:55:00;;;;;;;24.27;15.30;;;;;;;-143.48;100.00;118439.88;5052019;28;20111;-37
2023/04/28 09:57:30;;;;;;;22.25;15.70;;;;;;;-143.48;100.00;118439.88;5051338;28;20025;-37
2023/04/28 09:59:57;;;;;;;24.75;15.82;;;;;;;-143.48;100.00;118439.88;5034361;28;20028;-36
2023/04/28 10:02:24;;;;;;;22.80;15.70;;;;;;;-143.48;100.00;118439.88;5052766;28;20529;-36
2023/04/28 10:04:50;;;;;;;24.00;15.57;;;;;;;-143.48;100.00;118439.88;5052706;28;20025;-38
2023/04/28 10:07:18;;;;;;;22.98;15.43;;;;;;;-143.48;100.00;118439.88;5052341;28;20378;-35
2023/04/28 10:09:46;;;;;;;20.05;14.07;;;;;;;-143.48;100.00;118439.88;5052775;28;20021;-35
2023/04/28 10:12:19;;;;;;;26.40;14.20;;;;;;;-143.48;100.00;118439.88;5052883;28;20029;-39
2023/04/28 10:14:46;;;;;;;;;;;;;;;-143.48;100.00;118439.88;5053399;28;20392;-36
2023/04/28 10:17:13;;;;;;;19.73;12.85;;;;;;;-143.48;100.00;118439.88;5053845;28;19915;-37
2023/04/28 10:19:40;;;;;;;20.05;13.98;;;;;;;-143.48;100.00;118439.88;5053121;28;20107;-37
2023/04/28 10:22:34;;;;;;;20.55;14.50;;;;;;;-143.48;100.00;118439.88;5053157;28;20416;-34
2023/04/28 10:25:11;;;;;;;16.38;12.65;;;;;;;-143.48;100.00;118439.88;5023772;28;20459;-37
2023/04/28 10:27:45;;;;;;;20.13;14.18;;;;;;;-143.48;100.00;118439.88;5053176;28;20071;-37
2023/04/28 10:30:16;;;;;;;19.20;13.63;;;;;;;-143.48;100.00;118439.88;5053264;28;20025;-37
2023/04/28 10:32:42;;;;;;;18.02;13.40;;;;;;;-143.48;100.00;118439.88;5053044;28;20487;-35
2023/04/28 10:35:46;;;;;;;19.35;13.45;;;;;;;-143.48;100.00;118439.88;5052766;28;20032;-37
2023/04/28 10:38:17;;;;;;;20.13;13.63;;;;;;;-143.48;100.00;118439.88;5016702;28;20037;-37
2023/04/28 10:40:45;;;;;;;18.42;13.10;;;;;;;-143.48;100.00;118439.88;5056461;28;20503;-35
2023/04/28 10:43:29;;;;;;;18.40;13.15;;;;;;;-143.48;100.00;118439.88;5057134;28;20028;-36
2023/04/28 10:45:59;;;;;;;20.65;13.35;;;;;;;-143.48;100.00;118439.88;5057191;28;20032;-37
2023/04/28 10:48:25;;;;;;;20.88;14.20;;;;;;;-143.48;100.00;118439.88;5056615;28;20021;-36
2023/04/28 10:51:21;;;;;;;19.77;13.90;;;;;;;-143.48;100.00;118439.88;5056737;28;20040;-37
2023/04/28 10:53:50;;;;;;;18.60;13.35;;;;;;;-143.48;100.00;118439.88;5056657;28;20045;-37
2023/04/28 10:56:24;;;;;;;23.38;13.82;;;;;;;-143.48;100.00;118439.88;5056435;28;20025;-35
2023/04/28 10:58:56;;;;;;;20.95;14.00;;;;;;;-143.48;100.00;118439.88;5056296;28;20430;-36